KINJ

Hillsboro Municipal Airport

Hillsboro, Texas, USA
METAR KINJ 181900Z AUTO 18018G23KT 10SM BKN009 OVC014 18/17 A2982 RMK AO2 T01760166
Observed Flight Rules
Jan-18 @ 19:00 UTC (an hour ago) Instrument Flight Rules
Wind Visibility Clouds
180° at 18 knots
 Gusting to 23 knots
10 miles
  • Broken at 900' AGL
  • Overcast at 1,400' AGL
Temperatures Readings
Current 18°C / 64°F
Dewpoint 17°C / 63°F
Humidity 94%
Altimeter 29.82" Hg
Pressure 1009.82 hPa
Elevation 209
METAR KINJ 181900Z AUTO 18018G23KT 10SM BKN009 OVC014 18/17 A2982 RMK AO2 T01760166
Observed Flight Rules
Jan-18 @ 19:00 UTC
(an hour ago)
IFR
Wind Visibility
180° at 18 knots
 Gusting to 23 knots
10 miles
Clouds
  • Broken at 900' AGL
  • Overcast at 1,400' AGL
Temperature Dewpoint
18°C / 64°F 17°C / 63°F
Humidity Altimeter Pressure
94% 29.82" Hg 1009.82 hPa